createdAt,value
2022-11-25T00:01:32.456Z,9.13
2022-11-25T00:03:59.927Z,9.10
2022-11-25T00:06:29.964Z,9.93
2022-11-25T00:09:03.772Z,10.13
2022-11-25T00:11:31.304Z,9.57
2022-11-25T00:13:58.768Z,9.33
2022-11-25T00:16:26.689Z,9.40
2022-11-25T00:18:56.224Z,9.50
2022-11-25T00:21:26.367Z,9.70
2022-11-25T00:23:56.146Z,8.87
2022-11-25T00:26:24.984Z,8.63
2022-11-25T00:28:53.528Z,9.57
2022-11-25T00:31:23.753Z,9.30
2022-11-25T00:33:52.210Z,9.77
2022-11-25T00:36:31.280Z,9.70
2022-11-25T00:39:04.249Z,9.00
2022-11-25T00:41:50.235Z,9.47
2022-11-25T00:44:39.327Z,9.80
2022-11-25T00:47:11.567Z,10.27
2022-11-25T00:49:40.975Z,10.10
2022-11-25T00:52:09.269Z,9.53
2022-11-25T00:54:37.310Z,11.20
2022-11-25T00:57:04.857Z,12.03
2022-11-25T00:59:32.436Z,11.63
2022-11-25T01:02:00.120Z,11.27
2022-11-25T01:04:27.525Z,10.83
2022-11-25T01:06:56.999Z,11.77
2022-11-25T01:09:24.598Z,10.40
2022-11-25T01:11:52.203Z,9.83
2022-11-25T01:14:22.758Z,10.50
2022-11-25T01:16:51.596Z,9.83
2022-11-25T01:19:20.147Z,9.27
2022-11-25T01:21:47.541Z,9.37
2022-11-25T01:24:16.108Z,9.93
2022-11-25T01:26:45.000Z,9.10
2022-11-25T01:29:18.215Z,10.57
2022-11-25T01:31:46.732Z,9.60
2022-11-25T01:34:21.714Z,11.30
2022-11-25T01:36:49.222Z,10.70
2022-11-25T01:39:31.698Z,11.53
2022-11-25T01:42:00.072Z,12.10
2022-11-25T01:44:29.483Z,12.63
2022-11-25T01:47:18.687Z,11.20
2022-11-25T01:50:04.940Z,14.07
2022-11-25T01:52:37.906Z,14.83
2022-11-25T01:55:14.108Z,12.73
2022-11-25T01:57:47.347Z,11.47
2022-11-25T02:00:15.669Z,10.80
2022-11-25T02:02:47.923Z,11.17
2022-11-25T02:05:18.488Z,10.27
2022-11-25T02:07:49.068Z,10.50
2022-11-25T02:10:23.412Z,11.13
2022-11-25T02:12:51.806Z,11.37
2022-11-25T02:15:21.486Z,12.40
2022-11-25T02:17:49.391Z,11.83
2022-11-25T02:20:19.786Z,11.40
2022-11-25T02:22:50.342Z,10.63
2022-11-25T02:25:22.546Z,11.20
2022-11-25T02:27:58.704Z,9.97
2022-11-25T02:30:26.459Z,10.03
2022-11-25T02:32:54.506Z,11.33
2022-11-25T02:35:28.892Z,9.87
2022-11-25T02:38:10.344Z,10.47
2022-11-25T02:40:46.571Z,9.70
2022-11-25T02:43:14.819Z,10.93
2022-11-25T02:45:49.464Z,10.70
2022-11-25T02:48:17.023Z,10.30
2022-11-25T02:50:47.192Z,9.77
2022-11-25T02:53:16.278Z,10.47
2022-11-25T02:55:43.588Z,10.63
2022-11-25T02:58:11.061Z,10.40
2022-11-25T03:00:40.279Z,10.53
2022-11-25T03:03:09.957Z,10.03
2022-11-25T03:05:37.506Z,9.70
2022-11-25T03:08:06.356Z,9.73
2022-11-25T03:10:38.086Z,10.20
2022-11-25T03:13:07.024Z,10.40
2022-11-25T03:15:35.372Z,10.10
2022-11-25T03:18:03.756Z,9.23
2022-11-25T03:20:32.320Z,9.83
2022-11-25T03:23:00.094Z,8.67
2022-11-25T03:25:27.583Z,10.00
2022-11-25T03:27:56.620Z,10.17
2022-11-25T03:30:27.682Z,9.30
2022-11-25T03:32:58.756Z,9.30
2022-11-25T03:35:27.719Z,9.80
2022-11-25T03:37:55.507Z,10.07
2022-11-25T03:40:23.236Z,9.33
2022-11-25T03:42:50.932Z,10.57
2022-11-25T03:45:18.438Z,10.10
2022-11-25T03:47:47.177Z,10.07
2022-11-25T03:50:15.731Z,9.53
2022-11-25T03:52:44.948Z,10.73
2022-11-25T03:55:13.136Z,9.83
2022-11-25T03:57:42.952Z,10.10
2022-11-25T04:00:11.797Z,10.57
2022-11-25T04:02:57.606Z,10.40
2022-11-25T04:05:24.965Z,10.20
2022-11-25T04:07:57.730Z,10.20
2022-11-25T04:10:27.229Z,10.13
2022-11-25T04:12:55.718Z,9.30
2022-11-25T04:15:30.161Z,8.93
2022-11-25T04:17:59.135Z,9.83
2022-11-25T04:20:26.485Z,9.37
2022-11-25T04:23:02.983Z,10.43
2022-11-25T04:25:30.308Z,9.43
2022-11-25T04:27:59.080Z,9.27
2022-11-25T04:30:32.973Z,9.17
2022-11-25T04:33:02.128Z,9.30
2022-11-25T04:35:29.472Z,9.83
2022-11-25T04:37:57.795Z,9.30
2022-11-25T04:40:26.591Z,8.73
2022-11-25T04:43:11.490Z,9.50
2022-11-25T04:46:12.659Z,9.13
2022-11-25T04:48:32.461Z,9.57
2022-11-25T04:50:59.888Z,9.23
2022-11-25T04:53:27.831Z,10.13
2022-11-25T04:55:55.769Z,9.43
2022-11-25T04:58:41.884Z,9.93
2022-11-25T05:01:09.999Z,10.40
2022-11-25T05:03:46.576Z,9.03
2022-11-25T05:06:16.272Z,10.03
2022-11-25T05:08:43.902Z,9.57
2022-11-25T05:11:11.367Z,9.73
2022-11-25T05:13:38.771Z,10.07
2022-11-25T05:16:07.857Z,8.80
2022-11-25T05:18:36.136Z,9.03
2022-11-25T05:21:05.084Z,9.27
2022-11-25T05:23:37.065Z,9.03
2022-11-25T05:26:05.027Z,8.83
2022-11-25T05:28:38.952Z,9.70
2022-11-25T05:31:06.402Z,9.37
2022-11-25T05:33:33.917Z,9.80
2022-11-25T05:36:03.503Z,9.90
2022-11-25T05:38:41.075Z,10.07
2022-11-25T05:41:11.465Z,9.63
2022-11-25T05:43:40.856Z,10.43
2022-11-25T05:46:08.957Z,10.77
2022-11-25T05:48:39.976Z,9.50
2022-11-25T05:51:09.079Z,9.73
2022-11-25T05:53:36.829Z,9.63
2022-11-25T05:56:06.516Z,10.17
2022-11-25T05:58:59.678Z,10.77
2022-11-25T06:01:35.336Z,10.97
2022-11-25T06:04:04.342Z,10.90
2022-11-25T06:06:32.156Z,10.67
2022-11-25T06:09:00.212Z,10.40
2022-11-25T06:11:29.300Z,11.13
2022-11-25T06:13:58.116Z,10.33
2022-11-25T06:16:26.675Z,10.37
2022-11-25T06:19:06.603Z,10.47
2022-11-25T06:21:34.440Z,9.43
2022-11-25T06:24:01.875Z,9.83
2022-11-25T06:26:30.689Z,10.97
2022-11-25T06:28:58.084Z,10.40
2022-11-25T06:31:26.437Z,11.07
2022-11-25T06:34:14.080Z,10.60
2022-11-25T06:36:41.980Z,10.33
2022-11-25T06:39:09.568Z,10.47
2022-11-25T06:41:37.347Z,10.10
2022-11-25T06:44:04.889Z,11.07
2022-11-25T06:46:32.210Z,10.70
2022-11-25T06:49:00.512Z,11.10
2022-11-25T06:51:27.792Z,10.80
2022-11-25T06:53:55.171Z,12.00
2022-11-25T06:56:25.878Z,11.17
2022-11-25T06:58:54.519Z,11.40
2022-11-25T07:01:27.717Z,10.93
2022-11-25T07:03:58.749Z,13.17
2022-11-25T07:06:26.524Z,13.07
2022-11-25T07:08:53.964Z,11.73
2022-11-25T07:11:27.678Z,11.70
2022-11-25T07:13:57.778Z,11.17
2022-11-25T07:16:26.059Z,12.57
2022-11-25T07:18:53.475Z,13.97
2022-11-25T07:21:25.277Z,13.50
2022-11-25T07:23:53.214Z,12.30
2022-11-25T07:26:22.699Z,12.30
2022-11-25T07:28:52.431Z,12.63
2022-11-25T07:31:32.892Z,11.77
2022-11-25T07:34:09.879Z,12.63
2022-11-25T07:36:37.668Z,12.20
2022-11-25T07:39:09.052Z,12.40
2022-11-25T07:41:36.583Z,10.10
2022-11-25T07:44:05.893Z,10.90
2022-11-25T07:46:47.368Z,11.57
2022-11-25T07:49:17.848Z,11.20
2022-11-25T07:51:51.048Z,12.20
2022-11-25T07:54:18.452Z,11.90
2022-11-25T07:56:46.258Z,12.10
2022-11-25T07:59:16.744Z,12.37
2022-11-25T08:01:44.939Z,11.33
2022-11-25T08:04:18.303Z,11.07
2022-11-25T08:06:49.413Z,10.93
2022-11-25T08:09:20.173Z,10.53
2022-11-25T08:11:48.259Z,10.70
2022-11-25T08:14:17.480Z,9.70
2022-11-25T08:16:45.023Z,10.20
2022-11-25T08:19:15.509Z,8.83
2022-11-25T08:21:43.238Z,9.13
2022-11-25T08:24:18.152Z,9.43
2022-11-25T08:26:45.823Z,8.90
2022-11-25T08:29:16.284Z,9.90
2022-11-25T08:31:43.893Z,9.43
2022-11-25T08:34:21.461Z,8.47
2022-11-25T08:36:51.356Z,9.37
2022-11-25T08:42:08.128Z,9.33
2022-11-25T08:44:36.211Z,9.77
2022-11-25T08:47:03.849Z,9.50
2022-11-25T08:49:34.955Z,9.50
2022-11-25T08:52:07.681Z,9.60
2022-11-25T08:54:34.990Z,9.77
2022-11-25T08:57:02.430Z,10.10
2022-11-25T08:59:29.704Z,9.20
2022-11-25T09:01:57.248Z,9.67
2022-11-25T09:04:24.790Z,9.30
2022-11-25T09:06:52.232Z,9.77
2022-11-25T09:09:19.616Z,8.90
2022-11-25T09:11:47.077Z,9.80
2022-11-25T09:14:14.601Z,9.50
2022-11-25T09:16:42.154Z,9.63
2022-11-25T09:19:09.602Z,9.30
2022-11-25T09:21:37.190Z,10.30
2022-11-25T09:24:04.660Z,9.43
2022-11-25T09:26:35.796Z,9.13
2022-11-25T09:29:03.952Z,9.43
2022-11-25T09:31:31.528Z,9.43
2022-11-25T09:33:59.372Z,8.37
2022-11-25T09:36:26.785Z,8.93
2022-11-25T09:38:54.131Z,9.07
2022-11-25T09:42:07.986Z,9.77
2022-11-25T09:45:15.193Z,9.07
2022-11-25T09:48:25.279Z,7.90
2022-11-25T09:50:57.348Z,8.00
2022-11-25T09:53:48.000Z,8.60
2022-11-25T09:56:41.739Z,9.80
2022-11-25T09:59:31.923Z,8.70
2022-11-25T10:02:04.203Z,8.63
2022-11-25T10:04:40.441Z,8.57
2022-11-25T10:07:30.028Z,8.90
2022-11-25T10:10:01.427Z,8.47
2022-11-25T10:12:34.399Z,9.07
2022-11-25T10:15:12.557Z,8.67
2022-11-25T10:17:51.009Z,9.30
2022-11-25T10:20:30.554Z,8.47
2022-11-25T10:23:03.332Z,8.80
2022-11-25T10:25:39.105Z,8.47
2022-11-25T10:28:24.167Z,9.03
2022-11-25T10:30:54.186Z,8.87
2022-11-25T10:33:30.574Z,8.80
2022-11-25T10:36:06.527Z,9.03
2022-11-25T10:38:45.354Z,9.57
2022-11-25T10:41:17.173Z,9.67
2022-11-25T10:43:46.882Z,9.53
2022-11-25T10:47:13.040Z,8.50
2022-11-25T10:49:46.022Z,9.67
2022-11-25T10:52:14.343Z,8.90
2022-11-25T10:54:41.991Z,9.23
2022-11-25T10:57:20.652Z,8.93
2022-11-25T10:59:59.711Z,9.27
2022-11-25T11:02:28.212Z,9.47
2022-11-25T11:05:10.544Z,9.67
2022-11-25T11:07:43.803Z,9.63
2022-11-25T11:10:14.749Z,10.17
2022-11-25T11:13:02.992Z,10.20
2022-11-25T11:15:33.115Z,9.57
2022-11-25T11:18:20.947Z,10.13
2022-11-25T11:20:51.216Z,10.17
2022-11-25T11:23:19.140Z,9.60
2022-11-25T11:25:59.508Z,10.50
2022-11-25T11:28:39.607Z,10.63
2022-11-25T11:31:25.001Z,9.87
2022-11-25T11:34:11.810Z,10.03
2022-11-25T11:36:52.204Z,10.33
2022-11-25T11:39:25.585Z,10.57
2022-11-25T11:42:03.815Z,10.00
2022-11-25T11:45:11.547Z,10.20
2022-11-25T11:48:07.863Z,10.50
2022-11-25T11:50:47.501Z,10.47
2022-11-25T11:53:31.491Z,10.17
2022-11-25T11:59:42.514Z,11.13
2022-11-25T12:02:23.611Z,10.37
2022-11-25T12:05:09.785Z,10.30
2022-11-25T12:07:52.353Z,10.17
2022-11-25T12:10:44.518Z,9.27
2022-11-25T12:13:23.068Z,9.47
2022-11-25T12:16:21.990Z,10.87
2022-11-25T12:19:17.675Z,9.60
2022-11-25T12:22:01.625Z,9.67
2022-11-25T12:24:40.514Z,9.73
2022-11-25T12:27:34.742Z,9.43
2022-11-25T12:30:04.479Z,10.57
2022-11-25T12:32:51.214Z,9.47
2022-11-25T12:35:36.136Z,9.53
2022-11-25T12:38:25.539Z,9.23
2022-11-25T12:41:25.300Z,8.97
2022-11-25T12:44:24.968Z,8.80
2022-11-25T12:46:54.373Z,8.67
2022-11-25T12:49:30.353Z,9.63
2022-11-25T12:52:16.948Z,9.87
2022-11-25T12:55:09.456Z,10.07
2022-11-25T12:58:15.460Z,9.23
2022-11-25T13:01:23.295Z,9.67
2022-11-25T13:04:23.652Z,10.47
2022-11-25T13:07:10.481Z,9.53
2022-11-25T13:09:46.616Z,9.80
2022-11-25T13:12:27.872Z,9.90
2022-11-25T13:15:05.697Z,9.07
2022-11-25T13:17:39.489Z,8.43
2022-11-25T13:20:33.679Z,9.03
2022-11-25T13:23:10.808Z,9.67
2022-11-25T13:25:41.148Z,9.83
2022-11-25T13:28:34.423Z,9.63
2022-11-25T13:31:14.766Z,9.70
2022-11-25T13:33:45.335Z,9.57
2022-11-25T13:36:21.347Z,10.57
2022-11-25T13:38:48.962Z,10.30
2022-11-25T13:41:16.263Z,9.73
2022-11-25T13:44:02.544Z,9.80
2022-11-25T13:46:43.095Z,9.17
2022-11-25T13:49:31.276Z,9.57
2022-11-25T13:52:02.945Z,9.03
2022-11-25T13:54:48.174Z,8.97
2022-11-25T13:57:23.497Z,8.70
2022-11-25T13:59:58.145Z,7.77
2022-11-25T14:02:28.415Z,10.60
2022-11-25T14:05:10.949Z,9.70
2022-11-25T14:07:38.443Z,8.40
2022-11-25T14:10:39.468Z,8.93
2022-11-25T14:13:16.122Z,8.37
2022-11-25T14:16:14.637Z,9.17
2022-11-25T14:19:43.133Z,8.23
2022-11-25T14:22:18.819Z,9.00
2022-11-25T14:24:50.304Z,9.37
2022-11-25T14:27:25.974Z,9.63
2022-11-25T14:30:06.657Z,8.40
2022-11-25T14:32:40.362Z,8.33
2022-11-25T14:35:10.502Z,8.50
2022-11-25T14:37:45.393Z,8.43
2022-11-25T14:40:22.420Z,7.47
2022-11-25T14:42:53.913Z,9.03
2022-11-25T14:45:31.276Z,8.73
2022-11-25T14:47:58.739Z,9.17
2022-11-25T14:50:34.567Z,8.80
2022-11-25T14:53:07.621Z,8.40
2022-11-25T14:55:36.024Z,8.67
2022-11-25T14:58:03.910Z,8.43
2022-11-25T15:00:31.243Z,8.17
2022-11-25T15:03:01.368Z,7.53
2022-11-25T15:05:34.995Z,7.67
2022-11-25T15:08:10.290Z,8.10
2022-11-25T15:10:56.756Z,7.63
2022-11-25T15:13:35.679Z,7.70
2022-11-25T15:16:06.124Z,7.40
2022-11-25T15:18:35.512Z,7.10
2022-11-25T15:21:03.943Z,7.00
2022-11-25T15:23:36.924Z,7.40
2022-11-25T15:26:14.252Z,7.23
2022-11-25T15:28:41.863Z,7.67
2022-11-25T15:31:18.700Z,7.23
2022-11-25T15:33:54.405Z,8.30
2022-11-25T15:36:23.908Z,7.60
2022-11-25T15:38:51.861Z,8.07
2022-11-25T15:41:32.448Z,7.50
2022-11-25T15:44:02.492Z,7.10
2022-11-25T15:46:32.109Z,8.47
2022-11-25T15:49:03.848Z,7.83
2022-11-25T15:51:41.632Z,8.47
2022-11-25T15:54:13.078Z,8.07
2022-11-25T15:56:46.872Z,8.53
2022-11-25T15:59:47.650Z,8.77
2022-11-25T16:02:43.581Z,8.50
2022-11-25T16:05:14.197Z,8.27
2022-11-25T16:07:53.664Z,8.13
2022-11-25T16:10:22.537Z,7.00
2022-11-25T16:13:28.738Z,8.10
2022-11-25T16:15:55.955Z,8.77
2022-11-25T16:18:42.598Z,8.20
2022-11-25T16:21:19.790Z,7.63
2022-11-25T16:23:50.690Z,7.90
2022-11-25T16:26:25.353Z,7.70
2022-11-25T16:28:55.972Z,8.17
2022-11-25T16:31:24.561Z,8.40
2022-11-25T16:34:17.390Z,8.13
2022-11-25T16:36:45.363Z,7.70
2022-11-25T16:39:13.976Z,8.20
2022-11-25T16:41:42.220Z,7.97
2022-11-25T16:44:21.114Z,9.03
2022-11-25T16:46:48.501Z,8.27
2022-11-25T16:49:18.283Z,8.80
2022-11-25T16:51:45.717Z,7.93
2022-11-25T16:54:13.112Z,7.70
2022-11-25T16:56:43.168Z,8.97
2022-11-25T16:59:33.817Z,8.93
2022-11-25T17:02:01.882Z,9.33
2022-11-25T17:04:29.288Z,9.70
2022-11-25T17:07:30.518Z,8.77
2022-11-25T17:09:44.950Z,8.27
2022-11-25T17:12:18.030Z,8.27
2022-11-25T17:14:48.397Z,8.73
2022-11-25T17:17:24.384Z,8.50
2022-11-25T17:19:53.496Z,8.70
2022-11-25T17:22:23.949Z,9.17
2022-11-25T17:24:51.742Z,8.17
2022-11-25T17:27:25.475Z,9.13
2022-11-25T17:29:54.326Z,7.97
2022-11-25T17:32:22.226Z,8.10
2022-11-25T17:34:49.687Z,8.23
2022-11-25T17:37:20.354Z,9.03
2022-11-25T17:39:47.727Z,8.00
2022-11-25T17:42:21.811Z,9.07
2022-11-25T17:44:52.989Z,9.10
2022-11-25T17:47:21.740Z,8.00
2022-11-25T17:49:49.613Z,8.87
2022-11-25T17:52:17.374Z,8.37
2022-11-25T17:54:44.824Z,8.00
2022-11-25T17:57:17.076Z,8.10
2022-11-25T17:59:44.677Z,7.97
2022-11-25T18:02:22.598Z,9.27
2022-11-25T18:04:50.106Z,10.10
2022-11-25T18:07:18.439Z,9.60
2022-11-25T18:09:45.857Z,10.13
2022-11-25T18:12:24.982Z,11.27
2022-11-25T18:14:52.416Z,10.53
2022-11-25T18:17:19.933Z,9.97
2022-11-25T18:19:54.540Z,10.93
2022-11-25T18:22:24.014Z,10.70
2022-11-25T18:24:52.607Z,9.70
2022-11-25T18:27:22.341Z,9.33
2022-11-25T18:29:50.384Z,10.87
2022-11-25T18:32:17.946Z,10.17
2022-11-25T18:34:45.521Z,10.80
2022-11-25T18:37:12.996Z,9.77
2022-11-25T18:39:40.520Z,9.77
2022-11-25T18:42:19.355Z,10.20
2022-11-25T18:44:48.268Z,9.40
2022-11-25T18:47:15.643Z,8.97
2022-11-25T18:49:43.028Z,9.17
2022-11-25T18:52:10.480Z,8.97
2022-11-25T18:54:38.131Z,9.97
2022-11-25T18:57:06.099Z,9.10
2022-11-25T18:59:36.034Z,9.40
2022-11-25T19:02:03.594Z,9.27
2022-11-25T19:04:31.134Z,9.03
2022-11-25T19:06:58.482Z,8.90
2022-11-25T19:09:25.789Z,9.50
2022-11-25T19:11:55.785Z,8.80
2022-11-25T19:14:37.434Z,8.83
2022-11-25T19:17:08.684Z,8.17
2022-11-25T19:19:37.992Z,9.40
2022-11-25T19:22:15.642Z,9.80
2022-11-25T19:24:43.208Z,9.10
2022-11-25T19:27:17.943Z,10.80
2022-11-25T19:29:46.248Z,10.87
2022-11-25T19:32:21.712Z,13.57
2022-11-25T19:34:54.647Z,13.23
2022-11-25T19:37:23.135Z,11.33
2022-11-25T19:39:52.799Z,12.70
2022-11-25T19:42:20.148Z,11.23
2022-11-25T19:44:47.984Z,11.50
2022-11-25T19:47:26.637Z,12.03
2022-11-25T19:49:57.848Z,12.13
2022-11-25T19:52:34.915Z,11.70
2022-11-25T19:55:10.788Z,12.80
2022-11-25T19:57:38.228Z,12.03
2022-11-25T20:00:07.612Z,12.43
2022-11-25T20:02:36.509Z,11.27
2022-11-25T20:05:04.731Z,11.57
2022-11-25T20:07:32.648Z,11.27
2022-11-25T20:10:24.838Z,10.80
2022-11-25T20:12:53.839Z,11.27
2022-11-25T20:15:22.744Z,11.47
2022-11-25T20:17:55.173Z,11.50
2022-11-25T20:20:25.076Z,10.80
2022-11-25T20:22:59.027Z,10.90
2022-11-25T20:25:27.663Z,10.97
2022-11-25T20:27:55.839Z,12.07
2022-11-25T20:30:27.153Z,11.63
2022-11-25T20:32:55.531Z,12.10
2022-11-25T20:35:25.415Z,10.57
2022-11-25T20:37:58.103Z,10.93
2022-11-25T20:40:33.320Z,10.37
2022-11-25T20:43:01.500Z,10.50
2022-11-25T20:45:29.147Z,10.17
2022-11-25T20:47:58.984Z,10.57
2022-11-25T20:50:29.924Z,10.90
2022-11-25T20:52:58.365Z,9.33
2022-11-25T20:55:26.044Z,9.20
2022-11-25T20:57:53.377Z,9.03
2022-11-25T21:00:24.574Z,9.93
2022-11-25T21:02:53.547Z,9.80
2022-11-25T21:05:21.459Z,10.10
2022-11-25T21:07:50.531Z,10.23
2022-11-25T21:10:25.088Z,10.27
2022-11-25T21:12:53.259Z,9.90
2022-11-25T21:15:25.673Z,10.37
2022-11-25T21:17:53.288Z,11.33
2022-11-25T21:20:21.044Z,10.63
2022-11-25T21:22:52.395Z,11.43
2022-11-25T21:25:22.182Z,10.83
2022-11-25T21:27:51.937Z,12.30
2022-11-25T21:30:25.340Z,11.83
2022-11-25T21:32:57.651Z,13.53
2022-11-25T21:35:30.616Z,11.70
2022-11-25T21:38:01.783Z,13.90
2022-11-25T21:40:39.640Z,12.77
2022-11-25T21:43:21.621Z,12.20
2022-11-25T21:45:53.018Z,10.83
2022-11-25T21:48:24.237Z,11.47
2022-11-25T21:50:52.406Z,10.73
2022-11-25T21:53:20.006Z,11.17
2022-11-25T21:55:48.258Z,11.67
2022-11-25T21:58:18.680Z,8.63
2022-11-25T22:00:51.827Z,9.47
2022-11-25T22:03:20.919Z,9.97
2022-11-25T22:05:48.868Z,9.73
2022-11-25T22:08:17.141Z,9.23
2022-11-25T22:10:47.752Z,9.60
2022-11-25T22:13:27.410Z,10.00
2022-11-25T22:15:57.653Z,9.00
2022-11-25T22:18:29.852Z,8.77
2022-11-25T22:20:58.094Z,9.67
2022-11-25T22:23:25.722Z,9.87
2022-11-25T22:25:53.517Z,11.03
2022-11-25T22:28:28.439Z,9.57
2022-11-25T22:31:00.925Z,9.30
2022-11-25T22:33:34.636Z,9.87
2022-11-25T22:36:02.798Z,8.57
2022-11-25T22:38:30.766Z,8.63
2022-11-25T22:41:03.721Z,8.77
2022-11-25T22:43:37.990Z,8.57
2022-11-25T22:46:05.611Z,8.33
2022-11-25T22:48:38.136Z,8.40
2022-11-25T22:51:10.979Z,8.23
2022-11-25T22:53:38.350Z,7.87
2022-11-25T22:56:13.464Z,8.23
2022-11-25T22:58:40.783Z,8.07
2022-11-25T23:01:15.797Z,8.80
2022-11-25T23:03:43.994Z,7.63
2022-11-25T23:06:15.459Z,8.40
2022-11-25T23:08:42.988Z,8.60
2022-11-25T23:11:17.437Z,8.77
2022-11-25T23:13:44.995Z,8.60
2022-11-25T23:16:12.489Z,8.03
2022-11-25T23:18:45.327Z,9.70
2022-11-25T23:21:22.762Z,8.57
2022-11-25T23:23:50.864Z,8.70
2022-11-25T23:26:18.244Z,9.10
2022-11-25T23:28:46.019Z,8.60
2022-11-25T23:31:14.778Z,9.97
2022-11-25T23:33:48.435Z,10.70
2022-11-25T23:36:22.035Z,9.77
2022-11-25T23:38:52.373Z,8.87
2022-11-25T23:41:23.127Z,8.50
2022-11-25T23:43:50.574Z,7.93
2022-11-25T23:46:21.369Z,9.10
2022-11-25T23:49:01.943Z,9.03
2022-11-25T23:51:30.137Z,7.77
2022-11-25T23:53:58.589Z,9.30
2022-11-25T23:56:27.673Z,9.13
2022-11-25T23:58:55.175Z,8.93
